Time;durP1;ratioP1;P1;durP2;ratioP2;P2;SDS_P1;SDS_P2;PMS_P1;PMS_P2;Temp;Humidity;BMP_temperature;BMP_pressure;BME280_temperature;BME280_humidity;BME280_pressure;Samples;Min_cycle;Max_cycle;Signal;HPM_P1;HPM_P2
2023/09/10 00:01:11;;;;;;;10.30;7.05;;;;;;;;;;5025953;28;20034;-69
2023/09/10 00:03:37;;;;;;;9.68;6.00;;;;;;;;;;5027126;28;20106;-69
2023/09/10 00:06:05;;;;;;;12.38;6.38;;;;;;;;;;5027474;28;20479;-69
2023/09/10 00:08:32;;;;;;;9.25;5.75;;;;;;;;;;5027160;28;20036;-68
2023/09/10 00:10:58;;;;;;;7.95;5.70;;;;;;;;;;5027082;28;20136;-68
2023/09/10 00:13:25;;;;;;;8.10;5.47;;;;;;;;;;5030076;28;20026;-68
2023/09/10 00:15:52;;;;;;;7.53;5.35;;;;;;;;;;5031326;28;20033;-68
2023/09/10 00:18:19;;;;;;;9.65;5.78;;;;;;;;;;5040162;28;20521;-68
2023/09/10 00:20:45;;;;;;;8.02;5.30;;;;;;;;;;5043636;28;20033;-68
2023/09/10 00:23:12;;;;;;;10.32;6.32;;;;;;;;;;5031059;28;20060;-69
2023/09/10 00:25:38;;;;;;;12.50;6.15;;;;;;;;;;5031049;28;20095;-69
2023/09/10 00:28:04;;;;;;;13.45;6.13;;;;;;;;;;5031225;28;20434;-68
2023/09/10 00:30:30;;;;;;;8.50;6.03;;;;;;;;;;5028405;28;20041;-68
2023/09/10 00:32:56;;;;;;;11.13;6.10;;;;;;;;;;5013152;28;20029;-69
2023/09/10 00:35:22;;;;;;;7.97;5.20;;;;;;;;;;5012977;28;20467;-67
2023/09/10 00:37:48;;;;;;;10.20;5.43;;;;;;;;;;5031010;28;20041;-69
2023/09/10 00:40:14;;;;;;;14.77;6.03;;;;;;;;;;5012413;28;20033;-70
2023/09/10 00:42:40;;;;;;;10.77;5.30;;;;;;;;;;5029419;28;20068;-69
2023/09/10 00:45:08;;;;;;;10.93;5.70;;;;;;;;;;5031096;28;20336;-69
2023/09/10 00:47:37;;;;;;;12.63;6.53;;;;;;;;;;5012672;28;20115;-69
2023/09/10 00:50:05;;;;;;;11.05;7.15;;;;;;;;;;5012365;28;20033;-69
2023/09/10 00:52:31;;;;;;;9.85;7.18;;;;;;;;;;5030255;28;20029;-69
2023/09/10 00:54:57;;;;;;;13.57;7.70;;;;;;;;;;5029478;28;20034;-69
2023/09/10 00:57:24;;;;;;;13.43;6.40;;;;;;;;;;5029644;28;20025;-67
2023/09/10 00:59:50;;;;;;;10.43;6.30;;;;;;;;;;5030515;28;20037;-68
2023/09/10 01:02:18;;;;;;;10.10;6.53;;;;;;;;;;5018695;28;20036;-68
2023/09/10 01:04:44;;;;;;;13.43;7.75;;;;;;;;;;5028995;28;20034;-68
2023/09/10 01:07:10;;;;;;;11.50;7.07;;;;;;;;;;5028779;28;20031;-68
2023/09/10 01:09:36;;;;;;;9.80;7.15;;;;;;;;;;5029883;28;20124;-69
2023/09/10 01:12:16;;;;;;;14.07;7.53;;;;;;;;;;5020498;28;20119;-68
2023/09/10 01:14:55;;;;;;;9.25;7.20;;;;;;;;;;5030223;28;20498;-68
2023/09/10 01:17:30;;;;;;;12.55;6.78;;;;;;;;;;5030204;28;20041;-69
2023/09/10 01:20:30;;;;;;;10.82;7.05;;;;;;;;;;5013004;28;20041;-68
2023/09/10 01:23:07;;;;;;;10.93;6.70;;;;;;;;;;5012056;28;20037;-69
2023/09/10 01:25:33;;;;;;;13.55;6.63;;;;;;;;;;5012113;28;20036;-69
2023/09/10 01:28:03;;;;;;;13.95;7.10;;;;;;;;;;5030011;28;20026;-69
2023/09/10 01:30:33;;;;;;;12.18;5.97;;;;;;;;;;5011219;28;20037;-68
2023/09/10 01:33:23;;;;;;;7.60;6.05;;;;;;;;;;5012064;28;20486;-69
2023/09/10 01:35:56;;;;;;;12.45;6.25;;;;;;;;;;5012156;28;20037;-69
2023/09/10 01:38:40;;;;;;;11.70;6.10;;;;;;;;;;5012123;28;20068;-68
2023/09/10 01:41:12;;;;;;;8.98;4.55;;;;;;;;;;5029618;28;20041;-69
2023/09/10 01:43:39;;;;;;;7.30;5.00;;;;;;;;;;5028322;28;20037;-69
2023/09/10 01:46:06;;;;;;;5.55;4.15;;;;;;;;;;5029601;28;20067;-69
2023/09/10 01:48:32;;;;;;;7.95;4.40;;;;;;;;;;5029349;28;20398;-68
2023/09/10 01:50:59;;;;;;;8.88;4.40;;;;;;;;;;5011167;28;20441;-68
2023/09/10 01:53:25;;;;;;;6.35;3.90;;;;;;;;;;5011700;28;20044;-69
2023/09/10 01:55:51;;;;;;;6.35;4.00;;;;;;;;;;5029445;28;20028;-69
2023/09/10 01:58:17;;;;;;;5.57;4.28;;;;;;;;;;5011593;28;20030;-68
2023/09/10 02:00:43;;;;;;;7.85;4.03;;;;;;;;;;5010526;28;20025;-68
2023/09/10 02:03:09;;;;;;;5.03;3.75;;;;;;;;;;5019759;28;20108;-69
2023/09/10 02:05:35;;;;;;;7.05;4.30;;;;;;;;;;5021371;28;20104;-69
2023/09/10 02:08:01;;;;;;;9.77;5.03;;;;;;;;;;5013660;28;20120;-69
2023/09/10 02:10:28;;;;;;;7.35;4.40;;;;;;;;;;5031970;28;20059;-69
2023/09/10 02:12:54;;;;;;;11.95;4.90;;;;;;;;;;5033726;28;20041;-69
2023/09/10 02:15:20;;;;;;;6.07;4.45;;;;;;;;;;5032472;28;20025;-69
2023/09/10 02:17:46;;;;;;;8.15;5.13;;;;;;;;;;5032666;28;20033;-69
2023/09/10 02:20:12;;;;;;;7.60;4.75;;;;;;;;;;5032751;28;20121;-69
2023/09/10 02:22:38;;;;;;;8.02;4.00;;;;;;;;;;5032857;28;20038;-68
2023/09/10 02:25:05;;;;;;;7.45;4.47;;;;;;;;;;5033164;28;20083;-69
2023/09/10 02:27:31;;;;;;;7.40;4.57;;;;;;;;;;5034181;28;20029;-69
2023/09/10 02:29:58;;;;;;;6.57;4.57;;;;;;;;;;5023213;28;20026;-69
2023/09/10 02:32:25;;;;;;;9.20;4.43;;;;;;;;;;5015498;28;20033;-70
2023/09/10 02:34:53;;;;;;;8.27;5.15;;;;;;;;;;5014482;28;20025;-69
2023/09/10 02:37:20;;;;;;;9.20;4.60;;;;;;;;;;5029656;28;20025;-69
2023/09/10 02:39:45;;;;;;;6.38;4.60;;;;;;;;;;5022816;28;20030;-68
2023/09/10 02:42:12;;;;;;;6.85;4.43;;;;;;;;;;5019638;28;20048;-68
2023/09/10 02:44:37;;;;;;;10.40;4.63;;;;;;;;;;5015218;28;20028;-70
2023/09/10 02:47:03;;;;;;;6.25;4.47;;;;;;;;;;5015046;28;20510;-70
2023/09/10 02:49:29;;;;;;;7.50;4.60;;;;;;;;;;5022792;28;20079;-70
2023/09/10 02:51:55;;;;;;;6.57;4.32;;;;;;;;;;5014919;28;20045;-69
2023/09/10 02:54:21;;;;;;;7.57;4.88;;;;;;;;;;5032791;28;20032;-69
2023/09/10 02:56:49;;;;;;;6.18;4.28;;;;;;;;;;5015024;28;20506;-69
2023/09/10 02:59:24;;;;;;;9.57;4.68;;;;;;;;;;5014493;28;20026;-69
2023/09/10 03:01:50;;;;;;;6.15;4.88;;;;;;;;;;4997909;28;20068;-69
2023/09/10 03:04:16;;;;;;;8.65;5.07;;;;;;;;;;5019752;28;20029;-71
2023/09/10 03:06:45;;;;;;;16.70;5.75;;;;;;;;;;5022376;28;20168;-69
2023/09/10 03:09:12;;;;;;;7.22;5.15;;;;;;;;;;5022486;28;20525;-70
2023/09/10 03:11:40;;;;;;;6.28;5.28;;;;;;;;;;5022627;28;20097;-70
2023/09/10 03:14:07;;;;;;;9.73;4.63;;;;;;;;;;5022469;28;20017;-69
2023/09/10 03:16:40;;;;;;;5.63;4.65;;;;;;;;;;5021612;28;20030;-69
2023/09/10 03:19:08;;;;;;;6.32;4.47;;;;;;;;;;5015848;28;20118;-69
2023/09/10 03:21:36;;;;;;;6.57;4.40;;;;;;;;;;5027065;28;20052;-69
2023/09/10 03:24:02;;;;;;;7.13;4.97;;;;;;;;;;5022223;28;20037;-69
2023/09/10 03:26:28;;;;;;;7.47;4.90;;;;;;;;;;5022378;28;20548;-69
2023/09/10 03:28:54;;;;;;;8.02;4.80;;;;;;;;;;5029908;28;20029;-70
2023/09/10 03:31:20;;;;;;;7.45;4.93;;;;;;;;;;5022132;28;20842;-69
2023/09/10 03:33:48;;;;;;;7.80;5.60;;;;;;;;;;5031885;28;20037;-69
2023/09/10 03:36:14;;;;;;;7.28;5.15;;;;;;;;;;5022235;28;20025;-69
2023/09/10 03:38:40;;;;;;;6.97;5.15;;;;;;;;;;5031830;28;20393;-69
2023/09/10 03:41:07;;;;;;;13.52;5.55;;;;;;;;;;5014129;28;20112;-69
2023/09/10 03:43:33;;;;;;;11.25;5.32;;;;;;;;;;5014147;28;20120;-69
2023/09/10 03:45:59;;;;;;;7.78;5.13;;;;;;;;;;5013956;28;20025;-69
2023/09/10 03:48:25;;;;;;;8.48;6.10;;;;;;;;;;5013565;28;20036;-69
2023/09/10 03:50:50;;;;;;;10.85;6.65;;;;;;;;;;5013878;28;20486;-70
2023/09/10 03:53:17;;;;;;;9.20;5.93;;;;;;;;;;5013838;28;20075;-70
2023/09/10 03:55:43;;;;;;;10.15;5.85;;;;;;;;;;4997626;28;20060;-69
2023/09/10 03:58:10;;;;;;;8.00;6.30;;;;;;;;;;5013904;28;20041;-70
2023/09/10 04:00:37;;;;;;;8.52;5.72;;;;;;;;;;5013476;28;20030;-69
2023/09/10 04:03:04;;;;;;;8.73;6.30;;;;;;;;;;5013990;28;20048;-69
2023/09/10 04:05:30;;;;;;;13.00;6.82;;;;;;;;;;5013953;28;20026;-69
2023/09/10 04:07:56;;;;;;;8.20;6.25;;;;;;;;;;5031793;28;20063;-70
2023/09/10 04:10:22;;;;;;;14.13;6.95;;;;;;;;;;5012993;28;20068;-70
2023/09/10 04:12:50;;;;;;;12.23;6.85;;;;;;;;;;5020297;28;20160;-70
2023/09/10 04:15:16;;;;;;;8.75;6.10;;;;;;;;;;5031199;28;20148;-70
2023/09/10 04:17:42;;;;;;;7.53;5.85;;;;;;;;;;5005480;28;20125;-69
2023/09/10 04:20:09;;;;;;;9.98;5.82;;;;;;;;;;5021914;28;20040;-69
2023/09/10 04:22:35;;;;;;;9.02;6.18;;;;;;;;;;5021853;28;20037;-69
2023/09/10 04:25:01;;;;;;;9.48;5.63;;;;;;;;;;5031394;28;20045;-70
2023/09/10 04:27:28;;;;;;;10.85;5.80;;;;;;;;;;5031134;28;20051;-69
2023/09/10 04:29:54;;;;;;;9.35;5.60;;;;;;;;;;5020630;28;20029;-69
2023/09/10 04:32:20;;;;;;;8.15;5.82;;;;;;;;;;5021618;28;20116;-70
2023/09/10 04:34:46;;;;;;;15.20;5.57;;;;;;;;;;5021588;28;20459;-69
2023/09/10 04:37:13;;;;;;;8.88;5.65;;;;;;;;;;5031116;28;20112;-70
2023/09/10 04:39:39;;;;;;;11.25;5.55;;;;;;;;;;5031062;28;20109;-70
2023/09/10 04:42:05;;;;;;;8.30;5.70;;;;;;;;;;5031223;28;20386;-70
2023/09/10 04:44:31;;;;;;;13.13;5.72;;;;;;;;;;5005257;28;20104;-70
2023/09/10 04:46:57;;;;;;;10.48;6.63;;;;;;;;;;5021465;28;20040;-69
2023/09/10 04:49:23;;;;;;;6.75;4.90;;;;;;;;;;5021348;28;20040;-70
2023/09/10 04:51:49;;;;;;;12.23;5.03;;;;;;;;;;5017533;28;20060;-70
2023/09/10 04:54:15;;;;;;;7.90;4.53;;;;;;;;;;5012561;28;20410;-69
2023/09/10 04:56:41;;;;;;;9.75;4.55;;;;;;;;;;5020672;28;20391;-71
2023/09/10 04:59:07;;;;;;;8.02;4.53;;;;;;;;;;5015027;28;20094;-70
2023/09/10 05:01:33;;;;;;;8.80;5.22;;;;;;;;;;5016441;28;20033;-71
2023/09/10 05:04:00;;;;;;;7.80;4.32;;;;;;;;;;5024684;28;20021;-70
2023/09/10 05:06:25;;;;;;;7.30;4.38;;;;;;;;;;5008304;28;20417;-70
2023/09/10 05:08:51;;;;;;;5.30;4.05;;;;;;;;;;5024750;28;20025;-69
2023/09/10 05:11:18;;;;;;;5.70;3.83;;;;;;;;;;5024171;28;20413;-70
2023/09/10 05:13:44;;;;;;;6.22;4.10;;;;;;;;;;5034055;28;20112;-70
2023/09/10 05:16:10;;;;;;;6.60;4.05;;;;;;;;;;5024987;28;20240;-70
2023/09/10 05:18:36;;;;;;;7.65;3.85;;;;;;;;;;5024582;28;20587;-71
2023/09/10 05:21:02;;;;;;;7.05;3.50;;;;;;;;;;5016707;28;20040;-70
2023/09/10 05:23:28;;;;;;;5.72;3.83;;;;;;;;;;5033572;28;20033;-70
2023/09/10 05:25:56;;;;;;;7.20;3.53;;;;;;;;;;5017639;28;20029;-69
2023/09/10 05:28:23;;;;;;;7.97;3.50;;;;;;;;;;5024296;28;20029;-70
2023/09/10 05:30:49;;;;;;;8.25;3.70;;;;;;;;;;5024233;28;20034;-69
2023/09/10 05:33:15;;;;;;;7.07;3.15;;;;;;;;;;5024335;28;20037;-70
2023/09/10 05:35:41;;;;;;;5.20;3.00;;;;;;;;;;5024246;28;20033;-70
2023/09/10 05:38:10;;;;;;;5.82;2.92;;;;;;;;;;5024254;28;20471;-69
2023/09/10 05:40:36;;;;;;;11.50;3.22;;;;;;;;;;5033409;28;20471;-70
2023/09/10 05:43:05;;;;;;;9.63;2.97;;;;;;;;;;5016436;28;20033;-69
2023/09/10 05:45:34;;;;;;;4.93;2.65;;;;;;;;;;5024146;28;20640;-70
2023/09/10 05:48:00;;;;;;;5.15;2.88;;;;;;;;;;5000597;28;20112;-69
2023/09/10 05:50:26;;;;;;;9.77;3.33;;;;;;;;;;5033195;28;20124;-69
2023/09/10 05:52:56;;;;;;;5.50;3.33;;;;;;;;;;5023877;28;20048;-69
2023/09/10 05:55:27;;;;;;;6.82;3.25;;;;;;;;;;5023484;28;20037;-70
2023/09/10 05:57:53;;;;;;;11.30;4.00;;;;;;;;;;5007468;28;20487;-69
2023/09/10 06:00:20;;;;;;;7.97;4.20;;;;;;;;;;5001479;28;20434;-69
2023/09/10 06:02:49;;;;;;;15.80;5.65;;;;;;;;;;5024837;28;20038;-69
2023/09/10 06:05:18;;;;;;;6.88;4.03;;;;;;;;;;5016135;28;20025;-70
2023/09/10 06:07:44;;;;;;;13.65;4.60;;;;;;;;;;5016065;28;20029;-70
2023/09/10 06:10:10;;;;;;;6.38;4.38;;;;;;;;;;5014502;28;20080;-70
2023/09/10 06:12:37;;;;;;;6.78;4.60;;;;;;;;;;5015834;28;20030;-69
2023/09/10 06:15:05;;;;;;;9.00;3.88;;;;;;;;;;5015300;28;20471;-69
2023/09/10 06:17:31;;;;;;;7.85;3.70;;;;;;;;;;5014879;28;20052;-70
2023/09/10 06:19:57;;;;;;;8.63;3.75;;;;;;;;;;5015088;28;20508;-69
2023/09/10 06:22:23;;;;;;;6.75;3.60;;;;;;;;;;5015227;28;20112;-69
2023/09/10 06:24:49;;;;;;;6.97;3.72;;;;;;;;;;5015212;28;20025;-70
2023/09/10 06:27:15;;;;;;;9.25;3.40;;;;;;;;;;5015137;28;20033;-69
2023/09/10 06:29:42;;;;;;;8.27;3.70;;;;;;;;;;5014643;28;20029;-70
2023/09/10 06:32:08;;;;;;;5.93;3.53;;;;;;;;;;5015038;28;20041;-70
2023/09/10 06:34:34;;;;;;;7.78;3.70;;;;;;;;;;5015412;28;20021;-70
2023/09/10 06:37:00;;;;;;;5.70;3.60;;;;;;;;;;5014850;28;20109;-69
2023/09/10 06:39:26;;;;;;;4.72;3.30;;;;;;;;;;5032434;28;20419;-70
2023/09/10 06:41:55;;;;;;;8.13;3.97;;;;;;;;;;5014512;28;20037;-69
2023/09/10 06:44:24;;;;;;;6.32;3.85;;;;;;;;;;5014559;28;20095;-69
2023/09/10 06:46:50;;;;;;;5.70;3.40;;;;;;;;;;5032441;28;20453;-69
2023/09/10 06:49:15;;;;;;;6.38;3.28;;;;;;;;;;5032224;28;20029;-71
2023/09/10 06:51:41;;;;;;;6.28;3.08;;;;;;;;;;5032333;28;20040;-69
2023/09/10 06:54:07;;;;;;;4.22;2.95;;;;;;;;;;5032584;28;20109;-71
2023/09/10 06:56:33;;;;;;;4.32;2.90;;;;;;;;;;5032339;28;20033;-70
2023/09/10 06:58:58;;;;;;;9.77;3.10;;;;;;;;;;5031943;28;20036;-70
2023/09/10 07:01:24;;;;;;;4.00;2.80;;;;;;;;;;5039139;28;20040;-70
2023/09/10 07:03:53;;;;;;;6.55;3.63;;;;;;;;;;5033379;28;20044;-70
2023/09/10 07:06:19;;;;;;;10.32;3.38;;;;;;;;;;5051479;28;20048;-70
2023/09/10 07:08:45;;;;;;;8.70;3.28;;;;;;;;;;5051101;28;20490;-72
2023/09/10 07:11:11;;;;;;;5.50;2.83;;;;;;;;;;5033206;28;20032;-72
2023/09/10 07:13:37;;;;;;;6.38;3.05;;;;;;;;;;5051378;28;20032;-70
2023/09/10 07:16:04;;;;;;;6.30;3.45;;;;;;;;;;5007316;28;20393;-70
2023/09/10 07:18:33;;;;;;;4.40;2.88;;;;;;;;;;5031408;28;20391;-70
2023/09/10 07:21:00;;;;;;;6.18;2.72;;;;;;;;;;5030691;28;20041;-70
2023/09/10 07:23:26;;;;;;;5.10;2.90;;;;;;;;;;5031050;28;20021;-71
2023/09/10 07:25:52;;;;;;;8.38;3.30;;;;;;;;;;5031119;28;20025;-71
2023/09/10 07:28:18;;;;;;;7.95;2.90;;;;;;;;;;5013422;28;20406;-70
2023/09/10 07:30:44;;;;;;;7.57;2.90;;;;;;;;;;5012093;28;20044;-71
2023/09/10 07:33:09;;;;;;;4.85;3.13;;;;;;;;;;4996859;28;20025;-69
2023/09/10 07:35:35;;;;;;;7.00;2.67;;;;;;;;;;5030654;28;20033;-70
2023/09/10 07:38:01;;;;;;;9.88;2.92;;;;;;;;;;5030589;28;20398;-69
2023/09/10 07:40:27;;;;;;;6.80;2.90;;;;;;;;;;5030840;28;20167;-70
2023/09/10 07:42:53;;;;;;;3.97;2.50;;;;;;;;;;5030410;28;20033;-72
2023/09/10 07:45:19;;;;;;;8.00;2.95;;;;;;;;;;5012761;28;20041;-71
2023/09/10 07:47:47;;;;;;;7.82;3.40;;;;;;;;;;5030502;28;20025;-72
2023/09/10 07:50:14;;;;;;;10.68;3.08;;;;;;;;;;5029387;28;20068;-73
2023/09/10 07:52:39;;;;;;;7.03;2.60;;;;;;;;;;5011630;28;20017;-71
2023/09/10 07:55:06;;;;;;;8.48;2.30;;;;;;;;;;5030336;28;20069;-72
2023/09/10 07:57:31;;;;;;;4.50;2.65;;;;;;;;;;5013256;28;20151;-72
2023/09/10 07:59:57;;;;;;;6.03;2.53;;;;;;;;;;5029979;28;20030;-72
2023/09/10 08:02:26;;;;;;;9.00;2.78;;;;;;;;;;5013090;28;20033;-72
2023/09/10 08:04:54;;;;;;;4.50;2.75;;;;;;;;;;5030837;28;20467;-72
2023/09/10 08:07:19;;;;;;;9.40;2.92;;;;;;;;;;5031183;28;20025;-71
2023/09/10 08:09:45;;;;;;;8.70;2.88;;;;;;;;;;5030913;28;20029;-71
2023/09/10 08:12:11;;;;;;;7.03;2.40;;;;;;;;;;5012809;28;20421;-71
2023/09/10 08:14:38;;;;;;;5.28;2.75;;;;;;;;;;5030395;28;20106;-71
2023/09/10 08:17:04;;;;;;;5.72;2.38;;;;;;;;;;5030466;28;20395;-71
2023/09/10 08:19:30;;;;;;;7.38;2.70;;;;;;;;;;5030534;28;20033;-72
2023/09/10 08:21:56;;;;;;;6.97;2.60;;;;;;;;;;5031089;28;20433;-70
2023/09/10 08:24:22;;;;;;;4.00;2.50;;;;;;;;;;5031054;28;20050;-72
2023/09/10 08:26:48;;;;;;;8.65;2.75;;;;;;;;;;5030825;28;20482;-73
2023/09/10 08:29:14;;;;;;;6.90;2.70;;;;;;;;;;5030679;28;20029;-72
2023/09/10 08:31:40;;;;;;;8.70;2.80;;;;;;;;;;5030575;28;20116;-72
2023/09/10 08:34:06;;;;;;;6.53;3.05;;;;;;;;;;5032858;28;20029;-71
2023/09/10 08:36:31;;;;;;;4.25;3.05;;;;;;;;;;5034425;28;20467;-72
2023/09/10 08:38:57;;;;;;;5.85;3.00;;;;;;;;;;5034464;28;20036;-71
2023/09/10 08:41:48;;;;;;;5.38;2.80;;;;;;;;;;5016293;28;20025;-72
2023/09/10 08:44:19;;;;;;;5.95;2.60;;;;;;;;;;5034171;28;20124;-73
2023/09/10 08:46:48;;;;;;;9.07;2.70;;;;;;;;;;5034475;28;20029;-72
2023/09/10 08:49:17;;;;;;;6.47;2.78;;;;;;;;;;5034625;28;20127;-74
2023/09/10 08:51:43;;;;;;;6.35;2.63;;;;;;;;;;5032972;28;20076;-74
2023/09/10 08:54:11;;;;;;;3.92;2.22;;;;;;;;;;5033828;28;20029;-73
2023/09/10 08:56:37;;;;;;;5.55;2.60;;;;;;;;;;5016026;28;20108;-72
2023/09/10 08:59:05;;;;;;;7.72;2.55;;;;;;;;;;5027962;28;20100;-74
2023/09/10 09:01:31;;;;;;;8.30;2.28;;;;;;;;;;5031978;28;20458;-74
2023/09/10 09:03:57;;;;;;;4.05;2.58;;;;;;;;;;5032017;28;20029;-74
2023/09/10 09:06:28;;;;;;;8.02;3.92;;;;;;;;;;5032446;28;20513;-74
2023/09/10 09:08:59;;;;;;;7.63;2.75;;;;;;;;;;5034279;28;20045;-76
2023/09/10 09:11:27;;;;;;;8.35;2.60;;;;;;;;;;5033130;28;20224;-74
2023/09/10 09:13:54;;;;;;;10.63;2.42;;;;;;;;;;5036256;28;20036;-74
2023/09/10 09:16:21;;;;;;;6.63;2.45;;;;;;;;;;5032846;28;20083;-75
2023/09/10 09:18:48;;;;;;;5.05;2.42;;;;;;;;;;5032192;28;20064;-75
2023/09/10 09:21:19;;;;;;;5.35;2.45;;;;;;;;;;5015716;28;20076;-74
2023/09/10 09:23:52;;;;;;;3.25;2.00;;;;;;;;;;5022161;28;20487;-74
2023/09/10 09:26:18;;;;;;;6.68;2.47;;;;;;;;;;5032557;28;20030;-72
2023/09/10 09:28:45;;;;;;;5.85;2.63;;;;;;;;;;5030426;28;20021;-72
2023/09/10 09:31:11;;;;;;;4.95;2.13;;;;;;;;;;5040047;28;20041;-74
2023/09/10 09:33:38;;;;;;;5.38;2.33;;;;;;;;;;5031695;28;20025;-73
2023/09/10 09:36:08;;;;;;;5.15;2.20;;;;;;;;;;5016967;28;20084;-74
2023/09/10 09:38:34;;;;;;;3.50;2.00;;;;;;;;;;5022870;28;20047;-74
2023/09/10 09:41:04;;;;;;;4.35;2.10;;;;;;;;;;5032130;28;20056;-75
2023/09/10 09:43:36;;;;;;;6.57;2.55;;;;;;;;;;5023943;28;20033;-75
2023/09/10 09:46:03;;;;;;;4.40;2.55;;;;;;;;;;5031060;28;20625;-75
2023/09/10 09:48:30;;;;;;;3.85;2.30;;;;;;;;;;5033075;28;20466;-75
2023/09/10 09:50:57;;;;;;;3.83;2.53;;;;;;;;;;5031526;28;20470;-75
2023/09/10 09:53:25;;;;;;;8.48;2.95;;;;;;;;;;5032434;28;20105;-73
2023/09/10 09:55:56;;;;;;;4.88;2.78;;;;;;;;;;5021889;28;20045;-73
2023/09/10 09:58:22;;;;;;;5.97;2.88;;;;;;;;;;5031201;28;20033;-73
2023/09/10 10:00:49;;;;;;;5.63;2.10;;;;;;;;;;5031554;28;20079;-75
2023/09/10 10:03:18;;;;;;;4.95;2.10;;;;;;;;;;5013874;28;20041;-74
2023/09/10 10:05:49;;;;;;;3.72;2.00;;;;;;;;;;5031620;28;20022;-75
2023/09/10 10:08:16;;;;;;;4.05;2.08;;;;;;;;;;5032327;28;20033;-75
2023/09/10 10:10:47;;;;;;;7.65;2.13;;;;;;;;;;5031596;28;20029;-74
2023/09/10 10:13:22;;;;;;;6.10;3.20;;;;;;;;;;5033343;28;20037;-75
2023/09/10 10:15:55;;;;;;;8.07;2.50;;;;;;;;;;5042800;28;20033;-73
2023/09/10 10:18:22;;;;;;;4.25;2.20;;;;;;;;;;5031592;28;20033;-74
2023/09/10 10:20:49;;;;;;;6.20;1.95;;;;;;;;;;5030246;28;20026;-75
2023/09/10 10:23:17;;;;;;;3.50;2.20;;;;;;;;;;5031335;28;20049;-74
2023/09/10 10:25:44;;;;;;;6.65;2.05;;;;;;;;;;5031766;28;20052;-74
2023/09/10 10:28:12;;;;;;;4.15;2.20;;;;;;;;;;5031343;28;20033;-72
2023/09/10 10:30:52;;;;;;;3.17;1.88;;;;;;;;;;5031741;28;20132;-73
2023/09/10 10:33:23;;;;;;;4.82;2.25;;;;;;;;;;5032064;28;20080;-71
2023/09/10 10:35:59;;;;;;;3.35;1.67;;;;;;;;;;5031703;28;20035;-75
2023/09/10 10:38:32;;;;;;;5.70;2.10;;;;;;;;;;5032307;28;20034;-73
2023/09/10 10:41:06;;;;;;;4.40;2.10;;;;;;;;;;5031476;28;20041;-74
2023/09/10 10:43:41;;;;;;;6.10;2.03;;;;;;;;;;5014427;28;20072;-72
2023/09/10 10:46:09;;;;;;;4.28;2.53;;;;;;;;;;5032191;28;20446;-72
2023/09/10 10:48:41;;;;;;;3.50;2.00;;;;;;;;;;5032081;28;20075;-74
2023/09/10 10:51:10;;;;;;;7.95;2.28;;;;;;;;;;5028207;28;20091;-72
2023/09/10 10:53:36;;;;;;;4.65;2.03;;;;;;;;;;5031948;28;20037;-74
2023/09/10 10:56:04;;;;;;;12.77;2.05;;;;;;;;;;5021771;28;20121;-74
2023/09/10 10:58:31;;;;;;;5.30;2.10;;;;;;;;;;5031724;28;20418;-73
2023/09/10 11:00:59;;;;;;;9.52;1.92;;;;;;;;;;5030526;28;20121;-73
2023/09/10 11:03:26;;;;;;;6.63;2.65;;;;;;;;;;5032069;28;20497;-73
2023/09/10 11:05:52;;;;;;;6.22;2.63;;;;;;;;;;5031193;28;20033;-74
2023/09/10 11:08:32;;;;;;;3.75;2.10;;;;;;;;;;5032338;28;20037;-73
2023/09/10 11:10:59;;;;;;;3.65;2.20;;;;;;;;;;5031070;28;20071;-73
2023/09/10 11:13:25;;;;;;;3.28;2.00;;;;;;;;;;5013930;28;20043;-74
2023/09/10 11:16:04;;;;;;;6.40;2.10;;;;;;;;;;5030989;28;20068;-73
2023/09/10 11:18:36;;;;;;;4.18;2.08;;;;;;;;;;5031028;28;20399;-74
2023/09/10 11:21:06;;;;;;;5.63;2.63;;;;;;;;;;5030788;28;20037;-74
2023/09/10 11:23:34;;;;;;;8.77;2.10;;;;;;;;;;5024064;28;20088;-72
2023/09/10 11:26:15;;;;;;;4.22;1.65;;;;;;;;;;4993776;28;20021;-73
2023/09/10 11:28:51;;;;;;;3.15;1.70;;;;;;;;;;5011806;28;20044;-74
2023/09/10 11:34:17;;;;;;;4.40;2.30;;;;;;;;;;5011361;28;20061;-71
2023/09/10 11:36:54;;;;;;;6.78;3.05;;;;;;;;;;4994218;28;20129;-73
2023/09/10 11:39:22;;;;;;;8.30;2.05;;;;;;;;;;5011125;28;20503;-72
2023/09/10 11:41:57;;;;;;;5.95;2.95;;;;;;;;;;5011575;28;20044;-71
2023/09/10 11:44:24;;;;;;;5.50;2.83;;;;;;;;;;4994817;28;20084;-75
2023/09/10 11:46:54;;;;;;;4.03;2.17;;;;;;;;;;5011555;28;20032;-72
2023/09/10 11:49:22;;;;;;;4.63;2.50;;;;;;;;;;4993701;28;20398;-70
2023/09/10 11:51:50;;;;;;;3.45;2.28;;;;;;;;;;5010664;28;20416;-72
2023/09/10 11:54:20;;;;;;;7.72;3.13;;;;;;;;;;4993308;28;20042;-73
2023/09/10 11:56:58;;;;;;;5.35;2.63;;;;;;;;;;5010270;28;20026;-74
2023/09/10 11:59:27;;;;;;;4.03;1.67;;;;;;;;;;5012291;28;20038;-73
2023/09/10 12:01:54;;;;;;;6.07;2.10;;;;;;;;;;5030888;28;20109;-72
2023/09/10 12:04:25;;;;;;;6.72;3.00;;;;;;;;;;5031664;28;20065;-73
2023/09/10 12:06:51;;;;;;;3.40;1.88;;;;;;;;;;5032018;28;20036;-73
2023/09/10 12:09:18;;;;;;;4.03;2.13;;;;;;;;;;5035064;28;20029;-73
2023/09/10 12:11:47;;;;;;;4.00;1.92;;;;;;;;;;5034682;28;20075;-72
2023/09/10 12:14:13;;;;;;;5.85;1.88;;;;;;;;;;5035271;28;20029;-73
2023/09/10 12:16:39;;;;;;;3.95;2.10;;;;;;;;;;5017505;28;20044;-72
2023/09/10 12:19:06;;;;;;;7.40;2.40;;;;;;;;;;5034467;28;20049;-72
2023/09/10 12:21:32;;;;;;;5.05;2.00;;;;;;;;;;5017624;28;20120;-73
2023/09/10 12:23:59;;;;;;;6.40;2.42;;;;;;;;;;5035218;28;20100;-72
2023/09/10 12:26:25;;;;;;;7.50;1.90;;;;;;;;;;5034584;28;20033;-73
2023/09/10 12:28:51;;;;;;;4.85;2.15;;;;;;;;;;5034379;28;20029;-72
2023/09/10 12:31:17;;;;;;;5.80;3.25;;;;;;;;;;5034014;28;20065;-72
2023/09/10 12:33:45;;;;;;;6.95;1.77;;;;;;;;;;5034639;28;20033;-72
2023/09/10 12:36:11;;;;;;;7.72;2.20;;;;;;;;;;5034988;28;20124;-72
2023/09/10 12:38:37;;;;;;;4.43;2.33;;;;;;;;;;5034743;28;20105;-72
2023/09/10 12:41:03;;;;;;;6.70;2.25;;;;;;;;;;5016112;28;20029;-72
2023/09/10 12:43:29;;;;;;;8.23;2.13;;;;;;;;;;5034529;28;20030;-71
2023/09/10 12:45:55;;;;;;;4.38;1.83;;;;;;;;;;5034642;28;20033;-71
2023/09/10 12:48:21;;;;;;;5.93;1.60;;;;;;;;;;5034231;28;20029;-72
2023/09/10 12:50:48;;;;;;;6.20;2.10;;;;;;;;;;5034053;28;20518;-71
2023/09/10 12:53:14;;;;;;;5.60;1.73;;;;;;;;;;5034067;28;20029;-71
2023/09/10 12:55:41;;;;;;;4.97;1.73;;;;;;;;;;5033380;28;20432;-72
2023/09/10 12:58:13;;;;;;;8.20;2.40;;;;;;;;;;5016679;28;20029;-71
2023/09/10 13:00:41;;;;;;;6.35;1.83;;;;;;;;;;5033703;28;20087;-72
2023/09/10 13:03:07;;;;;;;4.22;1.90;;;;;;;;;;5033689;28;20022;-71
2023/09/10 13:05:33;;;;;;;4.85;2.25;;;;;;;;;;5030562;28;20581;-72
2023/09/10 13:08:02;;;;;;;10.00;2.25;;;;;;;;;;5034100;28;20061;-72
2023/09/10 13:10:28;;;;;;;3.78;2.00;;;;;;;;;;5033363;28;20064;-72
2023/09/10 13:12:54;;;;;;;7.50;2.05;;;;;;;;;;5033878;28;20462;-71
2023/09/10 13:15:20;;;;;;;2.60;1.63;;;;;;;;;;5033709;28;20049;-71
2023/09/10 13:17:48;;;;;;;3.75;2.00;;;;;;;;;;5032628;28;20056;-71
2023/09/10 13:20:15;;;;;;;6.43;1.88;;;;;;;;;;5032653;28;20104;-74
2023/09/10 13:22:40;;;;;;;8.88;2.28;;;;;;;;;;5016116;28;20052;-70
2023/09/10 13:25:07;;;;;;;2.72;1.85;;;;;;;;;;5024216;28;20029;-71
2023/09/10 13:27:33;;;;;;;4.97;2.10;;;;;;;;;;5033921;28;20024;-71
2023/09/10 13:29:59;;;;;;;6.60;2.30;;;;;;;;;;5033886;28;20037;-73
2023/09/10 13:32:26;;;;;;;4.82;1.98;;;;;;;;;;5024182;28;20029;-72
2023/09/10 13:34:51;;;;;;;10.18;2.22;;;;;;;;;;5033632;28;20078;-72
2023/09/10 13:37:17;;;;;;;6.20;1.90;;;;;;;;;;5007655;28;20493;-71
2023/09/10 13:39:43;;;;;;;9.05;2.00;;;;;;;;;;5032797;28;20088;-71
2023/09/10 13:42:11;;;;;;;7.53;2.30;;;;;;;;;;5033398;28;20398;-71
2023/09/10 13:44:37;;;;;;;4.35;1.70;;;;;;;;;;5033364;28;20041;-72
2023/09/10 13:47:04;;;;;;;8.15;1.92;;;;;;;;;;5032975;28;20013;-71
2023/09/10 13:49:30;;;;;;;6.70;1.95;;;;;;;;;;5032883;28;20029;-71
2023/09/10 13:51:56;;;;;;;4.55;2.50;;;;;;;;;;5033260;28;20404;-70
2023/09/10 13:54:22;;;;;;;4.22;2.25;;;;;;;;;;5032711;28;20120;-71
2023/09/10 13:56:49;;;;;;;8.90;2.00;;;;;;;;;;5032592;28;20104;-71
2023/09/10 13:59:15;;;;;;;5.35;1.83;;;;;;;;;;5032554;28;20030;-70
2023/09/10 14:01:42;;;;;;;5.15;1.80;;;;;;;;;;5032331;28;20029;-70
2023/09/10 14:04:08;;;;;;;11.57;2.00;;;;;;;;;;5033196;28;20037;-70
2023/09/10 14:06:34;;;;;;;5.47;2.08;;;;;;;;;;5032745;28;20100;-72
2023/09/10 14:09:00;;;;;;;4.55;1.80;;;;;;;;;;5022575;28;20064;-71
2023/09/10 14:11:27;;;;;;;5.68;2.03;;;;;;;;;;5029828;28;20057;-71
2023/09/10 14:13:54;;;;;;;5.25;2.05;;;;;;;;;;5031808;28;20037;-73
2023/09/10 14:16:21;;;;;;;7.35;2.08;;;;;;;;;;5031878;28;20083;-72
2023/09/10 14:18:47;;;;;;;7.38;1.83;;;;;;;;;;5022986;28;20494;-71
2023/09/10 14:21:14;;;;;;;6.28;2.30;;;;;;;;;;5031771;28;20079;-72
2023/09/10 14:23:40;;;;;;;3.63;1.80;;;;;;;;;;5022638;28;20495;-70
2023/09/10 14:26:07;;;;;;;5.28;1.80;;;;;;;;;;5032428;28;20067;-72
2023/09/10 14:28:33;;;;;;;5.15;1.95;;;;;;;;;;5022470;28;20033;-72
2023/09/10 14:31:01;;;;;;;6.95;2.50;;;;;;;;;;5030216;28;20136;-71
2023/09/10 14:33:28;;;;;;;6.32;1.95;;;;;;;;;;5022371;28;20121;-73
2023/09/10 14:35:54;;;;;;;3.97;1.92;;;;;;;;;;5032052;28;20025;-73
2023/09/10 14:38:22;;;;;;;5.93;2.00;;;;;;;;;;5032053;28;20056;-73
2023/09/10 14:40:47;;;;;;;5.95;1.90;;;;;;;;;;5031611;28;20048;-72
2023/09/10 14:43:15;;;;;;;7.68;1.98;;;;;;;;;;5032374;28;20041;-71
2023/09/10 14:45:41;;;;;;;5.78;1.70;;;;;;;;;;5030058;28;20079;-70